createdAt,value
2022-12-04T00:02:24.457Z,11.98
2022-12-04T00:05:10.342Z,13.60
2022-12-04T00:07:55.590Z,13.35
2022-12-04T00:10:44.225Z,12.20
2022-12-04T00:13:29.369Z,9.77
2022-12-04T00:16:20.386Z,12.45
2022-12-04T00:19:05.675Z,10.85
2022-12-04T00:21:51.164Z,10.95
2022-12-04T00:24:36.922Z,11.35
2022-12-04T00:27:22.097Z,11.80
2022-12-04T00:30:08.730Z,13.57
2022-12-04T00:32:54.042Z,11.18
2022-12-04T00:35:39.461Z,12.50
2022-12-04T00:38:25.558Z,11.45
2022-12-04T00:41:12.347Z,9.57
2022-12-04T00:43:58.358Z,12.38
2022-12-04T00:46:43.422Z,12.13
2022-12-04T00:49:28.762Z,9.48
2022-12-04T00:52:14.201Z,9.73
2022-12-04T00:54:59.556Z,10.05
2022-12-04T00:57:44.872Z,10.98
2022-12-04T01:00:30.832Z,8.45
2022-12-04T01:03:16.636Z,9.73
2022-12-04T01:06:02.925Z,7.80
2022-12-04T01:08:49.710Z,8.30
2022-12-04T01:11:34.936Z,8.30
2022-12-04T01:14:20.343Z,7.88
2022-12-04T01:17:05.777Z,10.40
2022-12-04T01:19:51.450Z,8.27
2022-12-04T01:22:36.622Z,9.30
2022-12-04T01:25:21.796Z,8.77
2022-12-04T01:28:07.266Z,10.32
2022-12-04T01:31:03.569Z,9.95
2022-12-04T01:33:49.982Z,12.40
2022-12-04T01:36:35.004Z,8.70
2022-12-04T01:39:20.553Z,10.10
2022-12-04T01:42:06.094Z,9.95
2022-12-04T01:45:33.673Z,11.70
2022-12-04T01:48:21.819Z,6.72
2022-12-04T01:51:30.455Z,8.32
2022-12-04T01:54:22.521Z,7.90
2022-12-04T01:57:14.134Z,9.00
2022-12-04T02:00:07.402Z,10.48
2022-12-04T02:02:52.467Z,9.88
2022-12-04T02:05:37.720Z,8.75
2022-12-04T02:08:23.454Z,9.50
2022-12-04T02:11:27.802Z,9.52
2022-12-04T02:14:51.044Z,9.15
2022-12-04T02:18:01.332Z,9.25
2022-12-04T02:21:10.234Z,10.60
2022-12-04T02:24:23.513Z,9.27
2022-12-04T02:27:30.657Z,10.52
2022-12-04T02:30:16.050Z,10.25
2022-12-04T02:33:07.230Z,10.00
2022-12-04T02:36:00.913Z,10.27
2022-12-04T02:38:57.357Z,8.52
2022-12-04T02:41:48.359Z,8.43
2022-12-04T02:45:02.471Z,8.38
2022-12-04T02:47:47.855Z,9.02
2022-12-04T02:50:37.554Z,9.70
2022-12-04T02:53:38.514Z,9.73
2022-12-04T02:56:30.046Z,8.80
2022-12-04T02:59:20.210Z,10.80
2022-12-04T03:02:18.367Z,10.25
2022-12-04T03:05:09.727Z,8.82
2022-12-04T03:07:59.634Z,11.52
2022-12-04T03:10:54.575Z,14.68
2022-12-04T03:13:48.790Z,12.50
2022-12-04T03:16:40.787Z,13.18
2022-12-04T03:19:34.513Z,10.45
2022-12-04T03:22:22.172Z,12.93
2022-12-04T03:25:08.669Z,10.13
2022-12-04T03:28:00.261Z,9.38
2022-12-04T03:30:54.101Z,10.05
2022-12-04T03:33:42.835Z,9.82
2022-12-04T03:36:34.735Z,9.23
2022-12-04T03:39:33.361Z,8.80
2022-12-04T03:42:23.075Z,8.27
2022-12-04T03:45:22.476Z,10.55
2022-12-04T03:48:22.691Z,9.40
2022-12-04T03:51:41.374Z,8.98
2022-12-04T03:54:37.337Z,8.30
2022-12-04T03:57:29.151Z,7.78
2022-12-04T04:00:17.915Z,7.78
2022-12-04T04:03:16.098Z,8.18
2022-12-04T04:06:19.151Z,6.18
2022-12-04T04:09:13.395Z,7.32
2022-12-04T04:12:06.754Z,8.60
2022-12-04T04:15:15.782Z,7.10
2022-12-04T04:18:20.780Z,7.45
2022-12-04T04:21:25.012Z,8.43
2022-12-04T04:24:26.594Z,7.97
2022-12-04T04:27:12.736Z,7.45
2022-12-04T04:29:58.629Z,7.57
2022-12-04T04:32:58.775Z,8.85
2022-12-04T04:35:59.376Z,8.50
2022-12-04T04:38:53.103Z,7.45
2022-12-04T04:41:54.117Z,10.93
2022-12-04T04:44:47.583Z,9.35
2022-12-04T04:47:40.826Z,7.85
2022-12-04T04:50:26.824Z,8.15
2022-12-04T04:53:28.338Z,8.07
2022-12-04T04:56:14.506Z,9.07
2022-12-04T04:58:59.560Z,9.73
2022-12-04T05:01:46.836Z,9.02
2022-12-04T05:04:32.276Z,7.82
2022-12-04T05:07:18.072Z,10.40
2022-12-04T05:10:03.581Z,10.07
2022-12-04T05:12:48.989Z,11.07
2022-12-04T05:15:34.223Z,9.95
2022-12-04T05:18:19.949Z,7.82
2022-12-04T05:21:18.287Z,6.88
2022-12-04T05:24:03.836Z,6.72
2022-12-04T05:26:49.037Z,6.35
2022-12-04T05:29:36.105Z,7.32
2022-12-04T05:32:22.339Z,6.53
2022-12-04T05:35:11.414Z,8.00
2022-12-04T05:37:57.096Z,10.23
2022-12-04T05:40:42.411Z,8.95
2022-12-04T05:43:28.380Z,9.75
2022-12-04T05:46:13.766Z,6.75
2022-12-04T05:48:59.114Z,8.43
2022-12-04T05:51:44.568Z,10.00
2022-12-04T05:54:29.803Z,8.13
2022-12-04T05:57:15.130Z,7.85
2022-12-04T06:00:00.482Z,6.63
2022-12-04T06:02:46.072Z,6.90
2022-12-04T06:05:32.617Z,8.75
2022-12-04T06:08:17.795Z,7.90
2022-12-04T06:11:10.642Z,6.60
2022-12-04T06:13:56.677Z,8.20
2022-12-04T06:16:45.757Z,7.88
2022-12-04T06:19:31.426Z,6.80
2022-12-04T06:22:16.839Z,10.85
2022-12-04T06:25:02.118Z,8.70
2022-12-04T06:27:47.559Z,8.57
2022-12-04T06:30:34.061Z,7.25
2022-12-04T06:33:19.225Z,9.68
2022-12-04T06:36:07.390Z,9.40
2022-12-04T06:38:54.938Z,7.88
2022-12-04T06:41:40.339Z,8.80
2022-12-04T06:44:25.795Z,8.25
2022-12-04T06:47:11.170Z,10.10
2022-12-04T06:49:56.667Z,9.70
2022-12-04T06:52:42.253Z,10.93
2022-12-04T06:55:27.481Z,10.15
2022-12-04T06:58:12.947Z,9.55
2022-12-04T07:00:58.811Z,8.30
2022-12-04T07:03:49.540Z,8.13
2022-12-04T07:06:38.880Z,7.38
2022-12-04T07:09:24.472Z,7.28
2022-12-04T07:12:09.810Z,5.63
2022-12-04T07:14:55.405Z,5.78
2022-12-04T07:17:40.567Z,9.98
2022-12-04T07:20:26.278Z,8.07
2022-12-04T07:23:11.634Z,8.95
2022-12-04T07:25:56.866Z,7.03
2022-12-04T07:28:42.379Z,5.75
2022-12-04T07:31:29.178Z,7.70
2022-12-04T07:34:14.664Z,7.18
2022-12-04T07:37:00.138Z,7.82
2022-12-04T07:39:45.619Z,6.75
2022-12-04T07:42:31.173Z,8.65
2022-12-04T07:45:16.715Z,7.05
2022-12-04T07:48:02.195Z,13.18
2022-12-04T07:50:47.850Z,8.10
2022-12-04T07:53:35.373Z,9.05
2022-12-04T07:56:21.243Z,9.15
2022-12-04T07:59:06.602Z,7.43
2022-12-04T08:01:52.098Z,8.55
2022-12-04T08:04:37.984Z,9.20
2022-12-04T08:07:23.481Z,9.55
2022-12-04T08:10:09.979Z,7.43
2022-12-04T08:12:55.282Z,8.80
2022-12-04T08:15:40.654Z,9.90
2022-12-04T08:18:26.205Z,10.30
2022-12-04T08:21:14.156Z,9.98
2022-12-04T08:24:00.689Z,11.45
2022-12-04T08:26:46.280Z,12.65
2022-12-04T08:29:31.693Z,11.05
2022-12-04T08:32:17.062Z,13.95
2022-12-04T08:35:02.309Z,16.00
2022-12-04T08:37:47.709Z,13.80
2022-12-04T08:40:33.273Z,13.25
2022-12-04T08:43:18.425Z,15.68
2022-12-04T08:46:06.672Z,14.10
2022-12-04T08:48:52.258Z,17.70
2022-12-04T08:51:37.717Z,15.85
2022-12-04T08:54:23.244Z,13.27
2022-12-04T08:57:08.608Z,12.18
2022-12-04T08:59:54.313Z,12.52
2022-12-04T09:02:39.815Z,13.70
2022-12-04T09:05:25.231Z,11.63
2022-12-04T09:08:10.818Z,13.23
2022-12-04T09:11:01.905Z,15.52
2022-12-04T09:13:47.689Z,14.32
2022-12-04T09:16:33.021Z,13.05
2022-12-04T09:19:19.413Z,13.20
2022-12-04T09:22:04.913Z,13.10
2022-12-04T09:24:50.301Z,10.50
2022-12-04T09:27:37.704Z,12.07
2022-12-04T09:30:23.391Z,12.07
2022-12-04T09:33:08.870Z,12.02
2022-12-04T09:35:54.498Z,15.32
2022-12-04T09:38:39.886Z,13.82
2022-12-04T09:42:07.037Z,14.50
2022-12-04T09:45:03.865Z,13.10
2022-12-04T09:47:53.241Z,14.00
2022-12-04T09:50:43.498Z,13.70
2022-12-04T09:53:43.790Z,14.38
2022-12-04T09:56:30.997Z,15.85
2022-12-04T09:59:22.203Z,17.80
2022-12-04T10:02:35.573Z,16.50
2022-12-04T10:05:26.148Z,16.13
2022-12-04T10:08:31.839Z,16.77
2022-12-04T10:11:48.533Z,14.27
2022-12-04T10:14:50.634Z,13.00
2022-12-04T10:17:59.524Z,14.20
2022-12-04T10:21:13.664Z,11.40
2022-12-04T10:24:23.865Z,14.57
2022-12-04T10:27:18.742Z,11.65
2022-12-04T10:30:14.007Z,12.88
2022-12-04T10:33:13.673Z,18.92
2022-12-04T10:35:59.477Z,15.95
2022-12-04T10:39:18.060Z,11.82
2022-12-04T10:42:28.106Z,10.20
2022-12-04T10:45:13.432Z,13.68
2022-12-04T10:47:58.718Z,15.45
2022-12-04T10:50:44.285Z,14.35
2022-12-04T10:53:36.880Z,13.73
2022-12-04T10:56:24.298Z,12.25
2022-12-04T10:59:15.828Z,11.07
2022-12-04T11:02:23.802Z,12.55
2022-12-04T11:05:23.583Z,10.70
2022-12-04T11:08:23.705Z,10.57
2022-12-04T11:11:13.182Z,12.02
2022-12-04T11:14:16.202Z,8.77
2022-12-04T11:17:07.013Z,9.48
2022-12-04T11:20:18.331Z,10.68
2022-12-04T11:23:05.200Z,15.55
2022-12-04T11:25:53.397Z,12.45
2022-12-04T11:28:42.379Z,9.80
2022-12-04T11:31:29.999Z,13.02
2022-12-04T11:34:21.265Z,10.43
2022-12-04T11:37:18.522Z,8.93
2022-12-04T11:40:14.384Z,10.63
2022-12-04T11:43:12.285Z,9.45
2022-12-04T11:46:07.234Z,7.90
2022-12-04T11:48:53.236Z,10.23
2022-12-04T11:52:21.968Z,8.05
2022-12-04T11:55:38.160Z,11.77
2022-12-04T11:58:56.042Z,7.68
2022-12-04T12:01:57.757Z,7.30
2022-12-04T12:05:04.129Z,6.82
2022-12-04T12:08:11.762Z,6.85
2022-12-04T12:11:17.423Z,5.40
2022-12-04T12:14:14.496Z,6.30
2022-12-04T12:17:23.785Z,6.68
2022-12-04T12:20:42.795Z,6.78
2022-12-04T12:23:48.578Z,5.63
2022-12-04T12:27:13.675Z,8.07
2022-12-04T12:30:16.702Z,6.65
2022-12-04T12:33:17.355Z,6.18
2022-12-04T12:36:10.715Z,5.90
2022-12-04T12:39:01.288Z,6.72
2022-12-04T12:41:56.157Z,5.93
2022-12-04T12:44:50.265Z,7.20
2022-12-04T12:47:42.496Z,5.57
2022-12-04T12:50:47.601Z,7.63
2022-12-04T12:53:40.810Z,6.53
2022-12-04T12:56:35.392Z,6.60
2022-12-04T12:59:25.342Z,9.48
2022-12-04T13:02:29.570Z,10.50
2022-12-04T13:05:21.164Z,10.43
2022-12-04T13:08:29.631Z,10.73
2022-12-04T13:11:24.126Z,9.57
2022-12-04T13:14:13.110Z,8.68
2022-12-04T13:17:03.045Z,8.95
2022-12-04T13:19:53.891Z,7.35
2022-12-04T13:23:02.486Z,7.93
2022-12-04T13:25:50.733Z,6.93
2022-12-04T13:28:57.716Z,8.75
2022-12-04T13:31:57.251Z,6.95
2022-12-04T13:35:05.324Z,8.20
2022-12-04T13:38:38.568Z,8.02
